Time;durP1;ratioP1;P1;durP2;ratioP2;P2;SDS_P1;SDS_P2;PMS_P1;PMS_P2;Temp;Humidity;BMP_temperature;BMP_pressure;BME280_temperature;BME280_humidity;BME280_pressure;Samples;Min_cycle;Max_cycle;Signal;HPM_P1;HPM_P2
2023/02/25 07:04:24;;;;;;;6.88;1.63;;;;;;;;;;10599812;27;20464;-83
2023/02/25 07:09:25;;;;;;;4.90;1.45;;;;;;;;;;10581401;28;20095;-83
2023/02/25 07:14:26;;;;;;;7.70;1.80;;;;;;;;;;10580900;28;20051;-83
2023/02/25 07:19:40;;;;;;;6.38;1.63;;;;;;;;;;10563719;28;20054;-83
2023/02/25 07:24:50;;;;;;;7.78;2.05;;;;;;;;;;10599404;28;20032;-83
2023/02/25 07:30:23;;;;;;;9.90;2.42;;;;;;;;;;10580304;28;20039;-83
2023/02/25 07:35:31;;;;;;;8.77;2.10;;;;;;;;;;10600305;28;20035;-83
2023/02/25 07:40:33;;;;;;;5.97;1.35;;;;;;;;;;10567189;28;20054;-83
2023/02/25 07:45:42;;;;;;;5.78;1.63;;;;;;;;;;10565325;28;20080;-83
2023/02/25 07:50:45;;;;;;;6.97;1.50;;;;;;;;;;10578341;28;20032;-83
2023/02/25 07:55:51;;;;;;;6.57;1.50;;;;;;;;;;10578145;28;20027;-83
2023/02/25 08:00:54;;;;;;;3.70;1.20;;;;;;;;;;10587132;28;20023;-79
2023/02/25 08:05:56;;;;;;;5.72;1.80;;;;;;;;;;10542637;28;20048;-78
2023/02/25 08:10:57;;;;;;;6.78;1.70;;;;;;;;;;10555782;28;20024;-78
2023/02/25 08:15:58;;;;;;;;;;;;;;;;;;10568801;28;20043;-78
2023/02/25 08:20:59;;;;;;;8.40;2.08;;;;;;;;;;10561079;28;20382;-79
2023/02/25 08:26:00;;;;;;;6.15;1.92;;;;;;;;;;10556521;28;20024;-78
2023/02/25 08:31:01;;;;;;;;;;;;;;;;;;10537856;28;20480;-78
2023/02/25 08:36:08;;;;;;;6.63;1.50;;;;;;;;;;10538422;28;19904;-78
2023/02/25 08:41:09;;;;;;;5.10;1.83;;;;;;;;;;10538683;28;20059;-79
2023/02/25 08:46:10;;;;;;;6.43;1.90;;;;;;;;;;10558084;28;20026;-79
2023/02/25 08:51:11;;;;;;;6.22;2.08;;;;;;;;;;10554205;28;20186;-79
2023/02/25 08:56:13;;;;;;;7.30;3.22;;;;;;;;;;10536572;28;20034;-79
2023/02/25 09:01:16;;;;;;;5.13;1.98;;;;;;;;;;10534309;28;20032;-78
2023/02/25 09:06:17;;;;;;;4.18;1.52;;;;;;;;;;10533818;28;20028;-78
2023/02/25 09:11:18;;;;;;;6.57;2.08;;;;;;;;;;10534546;28;20116;-78
2023/02/25 09:16:20;;;;;;;5.32;1.92;;;;;;;;;;10532317;28;20039;-78
2023/02/25 09:21:21;;;;;;;6.00;2.42;;;;;;;;;;10551111;28;20099;-79
2023/02/25 09:26:22;;;;;;;;;;;;;;;;;;10551694;28;20149;-78
2023/02/25 09:31:23;;;;;;;6.22;2.10;;;;;;;;;;10531595;28;19908;-78
2023/02/25 09:36:24;;;;;;;5.72;2.00;;;;;;;;;;10534263;28;20144;-80
2023/02/25 09:41:35;;;;;;;5.13;1.50;;;;;;;;;;10531798;28;20122;-79
2023/02/25 09:51:46;;;;;;;4.18;1.33;;;;;;;;;;10397280;28;20061;-84
2023/02/25 09:56:48;;;;;;;3.72;1.30;;;;;;;;;;10385401;28;20018;-84
2023/02/25 10:01:52;;;;;;;4.15;1.20;;;;;;;;;;10405436;28;20052;-85
2023/02/25 10:06:54;;;;;;;3.63;1.02;;;;;;;;;;10400542;28;20061;-86
2023/02/25 10:12:25;;;;;;;8.85;5.63;;;;;;;;;;10401635;28;20030;-86
2023/02/25 10:17:47;;;;;;;3.20;1.37;;;;;;;;;;10382825;28;20101;-86
2023/02/25 10:22:53;;;;;;;3.28;1.10;;;;;;;;;;10400319;28;20042;-85
2023/02/25 10:27:59;;;;;;;2.92;1.20;;;;;;;;;;10398473;28;20030;-86
2023/02/25 10:33:04;;;;;;;2.63;1.15;;;;;;;;;;10397670;28;20026;-84
2023/02/25 10:38:06;;;;;;;3.22;1.20;;;;;;;;;;10408221;28;20017;-84
2023/02/25 10:43:07;;;;;;;;;;;;;;;;;;10405226;28;20042;-85
2023/02/25 10:48:24;;;;;;;3.42;1.17;;;;;;;;;;10432069;28;19928;-86
2023/02/25 10:53:25;;;;;;;2.28;0.95;;;;;;;;;;10430899;28;20037;-85
2023/02/25 10:58:35;;;;;;;2.53;1.10;;;;;;;;;;10418535;28;20026;-85
2023/02/25 11:03:52;;;;;;;3.47;0.90;;;;;;;;;;10421162;28;20045;-84
2023/02/25 11:08:57;;;;;;;4.53;1.35;;;;;;;;;;10423596;28;20071;-84
2023/02/25 11:14:15;;;;;;;4.78;2.70;;;;;;;;;;10423389;28;20070;-84
2023/02/25 11:19:25;;;;;;;6.18;1.20;;;;;;;;;;10436514;28;20100;-82
2023/02/25 11:24:31;;;;;;;6.17;1.20;;;;;;;;;;10427790;28;20044;-83
2023/02/25 11:29:37;;;;;;;4.25;1.35;;;;;;;;;;10411155;28;20061;-84
2023/02/25 11:34:47;;;;;;;2.67;1.02;;;;;;;;;;10410828;28;20053;-84
2023/02/25 11:39:52;;;;;;;3.38;1.25;;;;;;;;;;10418655;28;20080;-84
2023/02/25 11:45:00;;;;;;;4.13;1.00;;;;;;;;;;10419976;28;20025;-85
2023/02/25 11:50:36;;;;;;;5.28;1.30;;;;;;;;;;10436436;28;20125;-83
2023/02/25 11:56:01;;;;;;;5.93;1.20;;;;;;;;;;10435805;28;20034;-84
2023/02/25 12:01:31;;;;;;;3.78;1.10;;;;;;;;;;10435253;28;20029;-84
2023/02/25 12:06:40;;;;;;;4.80;1.25;;;;;;;;;;10348250;28;20034;-84
2023/02/25 12:12:04;;;;;;;4.57;1.20;;;;;;;;;;10437642;28;20175;-83
2023/02/25 12:22:53;;;;;;;3.35;1.58;;;;;;;;;;10437585;28;20349;-84
2023/02/25 12:28:04;;;;;;;2.63;0.80;;;;;;;;;;10419682;28;20101;-84
2023/02/25 12:33:04;;;;;;;4.75;1.13;;;;;;;;;;10420724;28;20120;-84
2023/02/25 12:38:24;;;;;;;3.55;1.10;;;;;;;;;;10427009;28;20025;-83
2023/02/25 12:43:26;;;;;;;5.28;0.90;;;;;;;;;;10437213;28;20124;-82
2023/02/25 12:48:34;;;;;;;3.60;0.98;;;;;;;;;;10412722;28;20041;-82
2023/02/25 12:53:52;;;;;;;3.67;1.10;;;;;;;;;;10442387;28;20040;-82
2023/02/25 12:59:10;;;;;;;4.85;1.50;;;;;;;;;;10409084;28;20388;-83
2023/02/25 13:04:14;;;;;;;4.32;1.00;;;;;;;;;;10440397;28;20017;-83
2023/02/25 13:09:15;;;;;;;4.10;1.05;;;;;;;;;;10421936;28;20033;-83
2023/02/25 13:14:16;;;;;;;3.63;1.00;;;;;;;;;;10422383;28;20029;-82
2023/02/25 13:19:38;;;;;;;4.68;1.05;;;;;;;;;;10421660;28;20025;-83
2023/02/25 13:25:01;;;;;;;4.18;1.45;;;;;;;;;;10422642;28;20029;-83
2023/02/25 13:30:13;;;;;;;4.43;0.82;;;;;;;;;;10420533;28;20052;-82
2023/02/25 13:35:24;;;;;;;4.88;0.90;;;;;;;;;;10418618;28;20025;-83
2023/02/25 13:40:25;;;;;;;;;;;;;;;;;;10419102;28;20058;-82
2023/02/25 13:45:52;;;;;;;3.03;1.40;;;;;;;;;;10425340;28;19905;-81
2023/02/25 13:51:12;;;;;;;9.50;4.47;;;;;;;;;;10432780;28;20276;-80
2023/02/25 13:56:27;;;;;;;3.72;1.13;;;;;;;;;;10436623;28;20030;-80
2023/02/25 14:01:28;;;;;;;4.60;1.60;;;;;;;;;;10455529;28;20029;-81
2023/02/25 14:06:36;;;;;;;3.55;0.88;;;;;;;;;;10422847;28;20058;-82
2023/02/25 14:11:36;;;;;;;2.28;1.00;;;;;;;;;;10413525;28;20038;-82
2023/02/25 14:16:47;;;;;;;2.10;0.90;;;;;;;;;;10447951;28;20021;-80
2023/02/25 14:21:54;;;;;;;2.95;0.50;;;;;;;;;;10426209;28;20083;-82
2023/02/25 14:27:12;;;;;;;1.55;0.70;;;;;;;;;;10435285;28;20029;-82
2023/02/25 14:32:29;;;;;;;2.67;0.50;;;;;;;;;;10426363;28;20014;-82
2023/02/25 14:37:45;;;;;;;2.17;0.70;;;;;;;;;;10424545;28;20061;-82
2023/02/25 14:43:03;;;;;;;3.45;0.80;;;;;;;;;;10413121;28;20029;-82
2023/02/25 14:48:06;;;;;;;2.08;0.70;;;;;;;;;;10415318;28;20064;-82
2023/02/25 14:53:19;;;;;;;3.05;0.90;;;;;;;;;;10414881;28;20470;-82
2023/02/25 14:58:20;;;;;;;3.40;0.77;;;;;;;;;;10414210;28;20037;-82
2023/02/25 15:03:39;;;;;;;3.92;0.93;;;;;;;;;;10431764;28;20057;-82
2023/02/25 15:08:56;;;;;;;1.70;0.57;;;;;;;;;;10442793;28;20081;-80
2023/02/25 15:14:12;;;;;;;2.25;0.60;;;;;;;;;;10449929;28;20036;-83
2023/02/25 15:19:33;;;;;;;2.97;0.80;;;;;;;;;;10423809;28;20048;-82
2023/02/25 15:24:38;;;;;;;2.15;0.70;;;;;;;;;;10426779;28;20030;-82
2023/02/25 15:29:39;;;;;;;1.77;0.70;;;;;;;;;;10424931;28;20033;-82
2023/02/25 15:35:00;;;;;;;3.13;0.98;;;;;;;;;;10426396;28;20061;-82
2023/02/25 15:40:01;;;;;;;2.70;1.10;;;;;;;;;;10427034;28;20076;-82
2023/02/25 15:45:22;;;;;;;2.22;0.75;;;;;;;;;;10443819;28;20025;-82
2023/02/25 15:50:46;;;;;;;2.72;0.80;;;;;;;;;;10429479;28;20084;-80
2023/02/25 15:55:49;;;;;;;2.20;0.65;;;;;;;;;;10431869;28;20025;-80
2023/02/25 16:00:54;;;;;;;4.95;1.05;;;;;;;;;;10431057;28;20053;-80
2023/02/25 16:05:58;;;;;;;2.85;0.68;;;;;;;;;;10434079;28;20025;-80
2023/02/25 16:11:00;;;;;;;1.65;0.70;;;;;;;;;;10434847;28;20033;-80
2023/02/25 16:16:01;;;;;;;4.20;1.10;;;;;;;;;;10454273;28;20029;-80
2023/02/25 16:21:05;;;;;;;3.92;0.98;;;;;;;;;;10463952;28;20034;-79
2023/02/25 16:26:14;;;;;;;1.83;0.80;;;;;;;;;;10461086;28;20395;-81
2023/02/25 16:31:35;;;;;;;3.47;0.80;;;;;;;;;;10423105;28;20034;-81
2023/02/25 16:36:43;;;;;;;2.07;0.60;;;;;;;;;;10419175;28;20033;-81
2023/02/25 16:41:44;;;;;;;2.83;1.38;;;;;;;;;;10418961;28;20048;-82
2023/02/25 16:46:48;;;;;;;2.60;1.08;;;;;;;;;;10417889;28;20022;-81
2023/02/25 16:51:52;;;;;;;2.78;0.90;;;;;;;;;;10418469;28;20408;-81
2023/02/25 16:56:55;;;;;;;4.07;1.25;;;;;;;;;;10416832;28;20030;-81
2023/02/25 17:01:57;;;;;;;1.95;1.05;;;;;;;;;;10416482;28;20181;-80
2023/02/25 17:07:12;;;;;;;5.35;1.15;;;;;;;;;;10437415;28;20053;-80
2023/02/25 17:12:20;;;;;;;2.22;0.93;;;;;;;;;;10437708;28;20029;-82
2023/02/25 17:17:23;;;;;;;1.70;0.70;;;;;;;;;;10421782;28;20029;-82
2023/02/25 17:22:25;;;;;;;2.20;0.80;;;;;;;;;;10423974;28;20030;-82
2023/02/25 17:27:27;;;;;;;3.95;1.90;;;;;;;;;;10433758;28;20025;-81
2023/02/25 17:32:29;;;;;;;1.88;0.85;;;;;;;;;;10440262;28;20025;-81
2023/02/25 17:37:31;;;;;;;4.18;1.35;;;;;;;;;;10413161;28;20029;-81
2023/02/25 17:42:37;;;;;;;4.40;1.10;;;;;;;;;;10414739;28;20436;-81
2023/02/25 17:47:42;;;;;;;1.83;1.20;;;;;;;;;;10416431;28;20088;-82
2023/02/25 17:52:47;;;;;;;3.83;1.08;;;;;;;;;;10415529;28;20132;-82
2023/02/25 17:57:48;;;;;;;2.97;0.77;;;;;;;;;;10415075;28;20033;-81
2023/02/25 18:02:49;;;;;;;;;;;;;;;;;;10432097;28;20044;-82
2023/02/25 18:08:03;;;;;;;3.80;1.00;;;;;;;;;;10413663;28;20318;-81
2023/02/25 18:13:04;;;;;;;2.45;1.20;;;;;;;;;;10415229;28;20035;-82
2023/02/25 18:18:06;;;;;;;;;;;;;;;;;;10435810;28;20041;-81
2023/02/25 18:23:07;;;;;;;;;;;;;;;;;;10414510;28;19909;-82
2023/02/25 18:28:13;;;;;;;3.90;1.42;;;;;;;;;;10411088;28;19904;-82
2023/02/25 18:33:14;;;;;;;3.10;1.10;;;;;;;;;;10408836;28;20033;-82
2023/02/25 18:38:15;;;;;;;;;;;;;;;;;;10407029;28;20121;-82
2023/02/25 18:43:17;;;;;;;3.85;1.23;;;;;;;;;;10410994;28;19920;-80
2023/02/25 18:48:18;;;;;;;2.90;1.42;;;;;;;;;;10445790;28;20038;-81
2023/02/25 18:53:22;;;;;;;3.28;1.60;;;;;;;;;;10418712;28;20056;-82
2023/02/25 18:58:23;;;;;;;2.50;0.90;;;;;;;;;;10415281;28;20116;-82
2023/02/25 19:03:29;;;;;;;2.28;1.17;;;;;;;;;;10415200;28;20029;-82
2023/02/25 19:08:30;;;;;;;1.60;0.80;;;;;;;;;;10414353;28;20049;-82
2023/02/25 19:13:39;;;;;;;3.55;1.50;;;;;;;;;;10412576;28;20116;-82
2023/02/25 19:18:41;;;;;;;5.50;1.77;;;;;;;;;;10412063;28;20127;-82
2023/02/25 19:23:42;;;;;;;4.22;1.80;;;;;;;;;;10429462;28;20453;-82
2023/02/25 19:28:44;;;;;;;3.45;1.60;;;;;;;;;;10429280;28;20113;-82
2023/02/25 19:33:45;;;;;;;2.03;1.00;;;;;;;;;;10413046;28;20045;-82
2023/02/25 19:38:46;;;;;;;3.15;1.45;;;;;;;;;;10413458;28;20056;-84
2023/02/25 19:43:47;;;;;;;2.67;1.20;;;;;;;;;;10409496;28;20034;-81
2023/02/25 19:48:48;;;;;;;;;;;;;;;;;;10409967;28;20072;-81
2023/02/25 19:53:49;;;;;;;;;;;;;;;;;;10411240;28;19939;-81
2023/02/25 19:58:50;;;;;;;;;;;;;;;;;;10410818;28;20407;-82
2023/02/25 20:03:51;;;;;;;;;;;;;;;;;;10420204;28;19916;-81
2023/02/25 20:08:53;;;;;;;;;;;;;;;;;;10450460;28;19890;-82
2023/02/25 20:13:54;;;;;;;;;;;;;;;;;;10431494;28;19959;-83
